createdAt,value
2023-11-18T00:00:50.416Z,4.99
2023-11-18T00:03:40.790Z,4.95
2023-11-18T00:06:29.304Z,4.96
2023-11-18T00:09:17.375Z,4.93
2023-11-18T00:12:06.265Z,4.80
2023-11-18T00:14:54.259Z,4.77
2023-11-18T00:17:42.414Z,4.71
2023-11-18T00:20:33.403Z,4.66
2023-11-18T00:23:22.418Z,4.61
2023-11-18T00:26:11.449Z,4.58
2023-11-18T00:29:00.514Z,4.54
2023-11-18T00:31:48.686Z,4.47
2023-11-18T00:34:36.836Z,4.46
2023-11-18T00:37:26.227Z,4.46
2023-11-18T00:40:14.337Z,4.47
2023-11-18T00:43:03.636Z,4.46
2023-11-18T00:45:52.397Z,4.47
2023-11-18T00:48:40.473Z,4.48
2023-11-18T00:51:28.621Z,4.53
2023-11-18T00:54:17.901Z,4.55
2023-11-18T00:57:06.202Z,4.60
2023-11-18T00:59:54.476Z,4.67
2023-11-18T01:02:42.524Z,4.70
2023-11-18T01:05:32.789Z,4.74
2023-11-18T01:08:20.811Z,4.77
2023-11-18T01:11:10.262Z,4.79
2023-11-18T01:13:58.359Z,4.76
2023-11-18T01:16:46.520Z,4.79
2023-11-18T01:19:35.025Z,4.85
2023-11-18T01:22:23.361Z,4.93
2023-11-18T01:25:11.400Z,4.94
2023-11-18T01:28:01.011Z,5.02
2023-11-18T01:30:49.156Z,5.00
2023-11-18T01:33:38.149Z,5.01
2023-11-18T01:36:26.137Z,5.00
2023-11-18T01:39:14.880Z,4.98
2023-11-18T01:42:04.395Z,4.99
2023-11-18T01:44:53.900Z,4.99
2023-11-18T01:47:42.286Z,4.99
2023-11-18T01:50:31.073Z,4.99
2023-11-18T01:53:19.654Z,5.02
2023-11-18T01:56:09.738Z,5.06
2023-11-18T01:59:00.001Z,5.08
2023-11-18T02:01:52.421Z,5.08
2023-11-18T02:04:40.841Z,5.11
2023-11-18T02:07:29.627Z,5.08
2023-11-18T02:10:18.796Z,5.11
2023-11-18T02:13:14.985Z,5.11
2023-11-18T02:16:06.236Z,5.13
2023-11-18T02:18:56.222Z,5.16
2023-11-18T02:21:46.606Z,5.20
2023-11-18T02:24:37.928Z,5.22
2023-11-18T02:27:28.098Z,5.25
2023-11-18T02:30:18.194Z,5.26
2023-11-18T02:33:16.142Z,5.27
2023-11-18T02:36:11.501Z,5.30
2023-11-18T02:39:02.010Z,5.31
2023-11-18T02:41:54.383Z,5.29
2023-11-18T02:44:45.804Z,5.33
2023-11-18T02:47:34.065Z,5.35
2023-11-18T02:50:22.160Z,5.34
2023-11-18T02:53:10.579Z,5.38
2023-11-18T02:56:03.719Z,5.39
2023-11-18T02:58:51.760Z,5.41
2023-11-18T03:01:42.213Z,5.40
2023-11-18T03:04:30.269Z,5.45
2023-11-18T03:07:18.546Z,5.45
2023-11-18T03:10:11.907Z,5.46
2023-11-18T03:13:00.065Z,5.45
2023-11-18T03:15:49.275Z,5.49
2023-11-18T03:18:39.421Z,5.47
2023-11-18T03:21:28.316Z,5.50
2023-11-18T03:24:17.579Z,5.50
2023-11-18T03:27:05.992Z,5.55
2023-11-18T03:29:54.159Z,5.56
2023-11-18T03:32:42.414Z,5.55
2023-11-18T03:35:32.437Z,5.54
2023-11-18T03:38:20.811Z,5.59
2023-11-18T03:41:09.756Z,5.58
2023-11-18T03:43:57.898Z,5.60
2023-11-18T03:46:45.946Z,5.59
2023-11-18T03:49:34.119Z,5.59
2023-11-18T03:52:23.538Z,5.59
2023-11-18T03:55:11.851Z,5.60
2023-11-18T03:57:59.893Z,5.59
2023-11-18T04:00:48.088Z,5.60
2023-11-18T04:03:37.214Z,5.61
2023-11-18T04:06:25.677Z,5.62
2023-11-18T04:09:15.556Z,5.63
2023-11-18T04:12:04.314Z,5.64
2023-11-18T04:14:52.298Z,5.65
2023-11-18T04:17:41.282Z,5.64
2023-11-18T04:20:29.557Z,5.64
2023-11-18T04:23:17.753Z,5.66
2023-11-18T04:26:08.340Z,5.66
2023-11-18T04:28:56.563Z,5.66
2023-11-18T04:31:44.678Z,5.69
2023-11-18T04:34:33.945Z,5.70
2023-11-18T04:37:22.066Z,5.70
2023-11-18T04:40:12.047Z,5.70
2023-11-18T04:43:01.653Z,5.73
2023-11-18T04:45:49.681Z,5.73
2023-11-18T04:48:41.583Z,5.73
2023-11-18T04:51:31.540Z,5.75
2023-11-18T04:54:20.520Z,5.74
2023-11-18T04:57:10.112Z,5.72
2023-11-18T04:59:59.552Z,5.73
2023-11-18T05:02:49.328Z,5.69
2023-11-18T05:05:39.397Z,5.74
2023-11-18T05:08:27.736Z,5.74
2023-11-18T05:11:16.113Z,5.73
2023-11-18T05:14:05.345Z,5.72
2023-11-18T05:16:55.021Z,5.73
2023-11-18T05:19:44.284Z,5.75
2023-11-18T05:22:32.354Z,5.76
2023-11-18T05:25:20.506Z,5.80
2023-11-18T05:28:09.600Z,5.78
2023-11-18T05:30:59.263Z,5.82
2023-11-18T05:33:52.885Z,5.80
2023-11-18T05:36:41.439Z,5.80
2023-11-18T05:39:32.496Z,5.78
2023-11-18T05:42:20.533Z,5.82
2023-11-18T05:45:12.083Z,5.83
2023-11-18T05:48:00.299Z,5.85
2023-11-18T05:50:49.708Z,5.80
2023-11-18T05:53:42.218Z,5.84
2023-11-18T05:56:30.410Z,5.85
2023-11-18T05:59:18.644Z,5.86
2023-11-18T06:02:06.743Z,5.86
2023-11-18T06:04:55.805Z,5.90
2023-11-18T06:07:45.310Z,5.91
2023-11-18T06:10:34.042Z,5.89
2023-11-18T06:13:22.518Z,5.92
2023-11-18T06:16:15.427Z,5.91
2023-11-18T06:19:06.088Z,5.93
2023-11-18T06:21:54.158Z,5.93
2023-11-18T06:24:43.981Z,5.91
2023-11-18T06:27:32.134Z,5.92
2023-11-18T06:30:20.901Z,5.94
2023-11-18T06:33:09.232Z,5.95
2023-11-18T06:35:57.477Z,5.96
2023-11-18T06:38:45.933Z,5.98
2023-11-18T06:41:35.967Z,5.97
2023-11-18T06:44:25.362Z,6.01
2023-11-18T06:47:13.831Z,5.98
2023-11-18T06:50:02.105Z,6.02
2023-11-18T06:52:52.115Z,6.06
2023-11-18T06:55:40.508Z,6.01
2023-11-18T06:58:29.807Z,6.05
2023-11-18T07:01:18.168Z,6.08
2023-11-18T07:04:09.552Z,6.06
2023-11-18T07:06:57.511Z,6.03
2023-11-18T07:09:45.642Z,6.08
2023-11-18T07:12:34.847Z,6.02
2023-11-18T07:15:24.276Z,6.03
2023-11-18T07:18:13.581Z,6.02
2023-11-18T07:21:01.687Z,6.00
2023-11-18T07:23:49.640Z,6.01
2023-11-18T07:26:37.719Z,6.01
2023-11-18T07:29:25.686Z,5.99
2023-11-18T07:32:15.094Z,6.01
2023-11-18T07:35:03.250Z,6.02
2023-11-18T07:37:51.252Z,6.02
2023-11-18T07:40:43.344Z,6.03
2023-11-18T07:43:31.618Z,6.06
2023-11-18T07:46:19.839Z,6.03
2023-11-18T07:49:10.796Z,6.08
2023-11-18T07:51:59.522Z,6.10
2023-11-18T07:54:48.175Z,6.08
2023-11-18T07:57:38.562Z,6.12
2023-11-18T08:00:26.517Z,6.15
2023-11-18T08:03:15.518Z,6.16
2023-11-18T08:06:07.983Z,6.18
2023-11-18T08:08:58.828Z,6.17
2023-11-18T08:11:47.467Z,6.17
2023-11-18T08:14:35.419Z,6.18
2023-11-18T08:17:23.456Z,6.14
2023-11-18T08:20:15.324Z,6.18
2023-11-18T08:23:05.802Z,6.13
2023-11-18T08:25:54.190Z,6.14
2023-11-18T08:28:42.819Z,6.10
2023-11-18T08:31:31.017Z,6.08
2023-11-18T08:34:19.851Z,6.06
2023-11-18T08:37:08.005Z,6.06
2023-11-18T08:39:57.290Z,6.05
2023-11-18T08:42:51.568Z,6.05
2023-11-18T08:45:40.282Z,6.03
2023-11-18T08:48:29.472Z,6.02
2023-11-18T08:51:17.659Z,6.00
2023-11-18T08:54:23.207Z,6.01
2023-11-18T08:57:25.048Z,6.06
2023-11-18T09:00:34.553Z,6.04
2023-11-18T09:03:28.883Z,6.13
2023-11-18T09:06:26.549Z,6.16
2023-11-18T09:09:16.606Z,6.23
2023-11-18T09:12:05.043Z,6.28
2023-11-18T09:14:55.180Z,6.34
2023-11-18T09:17:45.765Z,6.36
2023-11-18T09:20:33.831Z,6.40
2023-11-18T09:23:24.703Z,6.45
2023-11-18T09:26:12.910Z,6.46
2023-11-18T09:29:02.690Z,6.48
2023-11-18T09:31:55.412Z,6.49
2023-11-18T09:34:43.509Z,6.57
2023-11-18T09:37:31.599Z,6.56
2023-11-18T09:40:25.859Z,6.58
2023-11-18T09:43:16.958Z,6.61
2023-11-18T09:46:13.665Z,6.63
2023-11-18T09:49:16.945Z,6.63
2023-11-18T09:52:06.968Z,6.66
2023-11-18T09:55:04.743Z,6.65
2023-11-18T09:57:58.885Z,6.68
2023-11-18T10:00:51.994Z,6.74
2023-11-18T10:03:43.141Z,6.74
2023-11-18T10:06:35.135Z,6.74
2023-11-18T10:09:29.427Z,6.74
2023-11-18T10:12:24.864Z,6.75
2023-11-18T10:15:15.885Z,6.79
2023-11-18T10:18:08.939Z,6.77
2023-11-18T10:20:57.995Z,6.83
2023-11-18T10:24:03.288Z,6.85
2023-11-18T10:26:58.376Z,6.83
2023-11-18T10:29:47.973Z,6.82
2023-11-18T10:32:37.483Z,6.82
2023-11-18T10:35:28.979Z,6.83
2023-11-18T10:38:17.837Z,6.87
2023-11-18T10:41:08.530Z,6.86
2023-11-18T10:44:08.869Z,6.87
2023-11-18T10:46:59.661Z,6.87
2023-11-18T10:49:47.731Z,6.88
2023-11-18T10:52:41.708Z,6.87
2023-11-18T10:55:38.010Z,6.88
2023-11-18T10:58:37.069Z,6.92
2023-11-18T11:01:33.021Z,6.98
2023-11-18T11:04:22.647Z,7.02
2023-11-18T11:07:12.118Z,7.07
2023-11-18T11:10:05.171Z,7.07
2023-11-18T11:12:55.971Z,7.09
2023-11-18T11:15:52.165Z,7.08
2023-11-18T11:18:54.350Z,7.12
2023-11-18T11:21:49.600Z,7.12
2023-11-18T11:24:56.361Z,7.21
2023-11-18T11:27:53.267Z,7.21
2023-11-18T11:30:47.251Z,7.19
2023-11-18T11:33:45.250Z,7.20
2023-11-18T11:36:41.802Z,7.24
2023-11-18T11:39:31.537Z,7.26
2023-11-18T11:42:21.973Z,7.31
2023-11-18T11:45:21.357Z,7.32
2023-11-18T11:48:16.503Z,7.32
2023-11-18T11:51:15.547Z,7.33
2023-11-18T11:54:16.211Z,7.31
2023-11-18T11:57:07.016Z,7.32
2023-11-18T11:59:58.467Z,7.34
2023-11-18T12:02:56.066Z,7.32
2023-11-18T12:05:47.989Z,7.34
2023-11-18T12:08:38.563Z,7.33
2023-11-18T12:11:29.183Z,7.29
2023-11-18T12:14:39.032Z,7.30
2023-11-18T12:17:33.510Z,7.32
2023-11-18T12:20:43.087Z,7.32
2023-11-18T12:23:35.748Z,7.33
2023-11-18T12:26:44.806Z,7.33
2023-11-18T12:29:33.789Z,7.36
2023-11-18T12:32:55.362Z,7.38
2023-11-18T12:36:09.175Z,7.38
2023-11-18T12:39:24.864Z,7.37
2023-11-18T12:42:36.702Z,7.26
2023-11-18T12:45:45.888Z,7.31
2023-11-18T12:48:37.648Z,7.33
2023-11-18T12:51:25.665Z,7.33
2023-11-18T12:54:16.476Z,7.33
2023-11-18T12:57:07.777Z,7.33
2023-11-18T12:59:55.950Z,7.33
2023-11-18T13:02:44.090Z,7.38
2023-11-18T13:05:32.268Z,7.35
2023-11-18T13:08:23.666Z,7.40
2023-11-18T13:11:17.402Z,7.39
2023-11-18T13:14:06.018Z,7.42
2023-11-18T13:16:55.235Z,7.42
2023-11-18T13:19:43.848Z,7.42
2023-11-18T13:22:42.507Z,7.45
2023-11-18T13:25:34.110Z,7.44
2023-11-18T13:28:25.978Z,7.48
2023-11-18T13:31:17.586Z,7.49
2023-11-18T13:34:08.276Z,7.49
2023-11-18T13:36:56.757Z,7.50
2023-11-18T13:39:48.302Z,7.52
2023-11-18T13:42:38.730Z,7.43
2023-11-18T13:45:34.140Z,7.52
2023-11-18T13:48:26.285Z,7.53
2023-11-18T13:51:14.932Z,7.58
2023-11-18T13:54:03.522Z,7.62
2023-11-18T13:56:52.792Z,7.65
2023-11-18T13:59:44.263Z,7.63
2023-11-18T14:02:34.434Z,7.66
2023-11-18T14:05:25.329Z,7.64
2023-11-18T14:08:20.817Z,7.68
2023-11-18T14:11:15.274Z,7.68
2023-11-18T14:14:06.632Z,7.71
2023-11-18T14:16:58.602Z,7.72
2023-11-18T14:19:47.926Z,7.75
2023-11-18T14:22:37.699Z,7.75
2023-11-18T14:25:26.001Z,7.77
2023-11-18T14:28:14.085Z,7.79
2023-11-18T14:31:02.156Z,7.85
2023-11-18T14:33:50.436Z,7.86
2023-11-18T14:36:41.199Z,7.86
2023-11-18T14:39:29.244Z,7.93
2023-11-18T14:42:17.200Z,7.92
2023-11-18T14:45:05.661Z,7.94
2023-11-18T14:47:54.026Z,7.97
2023-11-18T14:50:42.497Z,7.98
2023-11-18T14:53:31.835Z,8.00
2023-11-18T14:56:19.943Z,8.03
2023-11-18T14:59:08.983Z,8.06
2023-11-18T15:01:58.727Z,8.07
2023-11-18T15:04:46.749Z,8.09
2023-11-18T15:07:34.750Z,8.10
2023-11-18T15:10:25.505Z,8.15
2023-11-18T15:13:16.524Z,8.19
2023-11-18T15:16:05.626Z,8.23
2023-11-18T15:18:54.153Z,8.26
2023-11-18T15:21:42.494Z,8.26
2023-11-18T15:24:30.441Z,8.30
2023-11-18T15:27:20.949Z,8.34
2023-11-18T15:30:12.104Z,8.36
2023-11-18T15:33:00.809Z,8.39
2023-11-18T15:35:48.817Z,8.41
2023-11-18T15:38:36.968Z,8.39
2023-11-18T15:41:25.232Z,8.42
2023-11-18T15:44:14.707Z,8.42
2023-11-18T15:47:02.929Z,8.44
2023-11-18T15:49:52.085Z,8.46
2023-11-18T15:52:40.606Z,8.48
2023-11-18T15:55:28.756Z,8.53
2023-11-18T15:58:17.360Z,8.54
2023-11-18T16:01:08.470Z,8.57
2023-11-18T16:03:56.968Z,8.64
2023-11-18T16:06:45.132Z,8.63
2023-11-18T16:09:33.250Z,8.69
2023-11-18T16:12:21.245Z,8.75
2023-11-18T16:15:11.426Z,8.78
2023-11-18T16:18:02.232Z,8.87
2023-11-18T16:20:50.494Z,8.93
2023-11-18T16:23:40.471Z,8.93
2023-11-18T16:26:28.525Z,8.98
2023-11-18T16:29:16.655Z,9.01
2023-11-18T16:32:05.290Z,9.06
2023-11-18T16:34:55.037Z,9.19
2023-11-18T16:37:44.353Z,9.21
2023-11-18T16:40:34.176Z,9.23
2023-11-18T16:43:22.295Z,9.29
2023-11-18T16:46:10.310Z,9.33
2023-11-18T16:48:58.397Z,9.40
2023-11-18T16:51:53.919Z,9.54
2023-11-18T16:54:43.968Z,9.58
2023-11-18T16:57:31.893Z,9.78
2023-11-18T17:00:23.883Z,9.76
2023-11-18T17:03:13.565Z,9.88
2023-11-18T17:06:01.653Z,9.94
2023-11-18T17:08:51.028Z,9.95
2023-11-18T17:11:39.186Z,10.01
2023-11-18T17:14:27.183Z,10.05
2023-11-18T17:17:15.818Z,10.09
2023-11-18T17:20:09.840Z,10.19
2023-11-18T17:22:57.857Z,10.16
2023-11-18T17:25:47.211Z,10.19
2023-11-18T17:28:35.850Z,10.24
2023-11-18T17:31:25.982Z,10.30
2023-11-18T17:34:14.183Z,10.46
2023-11-18T17:37:02.244Z,10.46
2023-11-18T17:39:50.298Z,10.55
2023-11-18T17:42:40.563Z,10.58
2023-11-18T17:45:28.781Z,10.55
2023-11-18T17:48:16.910Z,10.62
2023-11-18T17:51:05.399Z,10.58
2023-11-18T17:53:53.584Z,10.61
2023-11-18T17:56:42.462Z,10.64
2023-11-18T17:59:31.782Z,10.63
2023-11-18T18:02:19.905Z,10.69
2023-11-18T18:05:09.068Z,10.72
2023-11-18T18:07:57.685Z,10.74
2023-11-18T18:10:45.710Z,10.76
2023-11-18T18:13:33.789Z,10.83
2023-11-18T18:16:23.194Z,10.82
2023-11-18T18:19:11.521Z,10.92
2023-11-18T18:21:59.623Z,10.99
2023-11-18T18:24:47.804Z,10.99
2023-11-18T18:27:35.907Z,10.96
2023-11-18T18:30:23.869Z,10.99
2023-11-18T18:33:13.235Z,11.03
2023-11-18T18:36:01.263Z,11.11
2023-11-18T18:38:50.643Z,11.25
2023-11-18T18:41:39.366Z,11.25
2023-11-18T18:44:28.001Z,11.25
2023-11-18T18:47:16.263Z,11.27
2023-11-18T18:50:08.495Z,11.40
2023-11-18T18:52:56.583Z,11.36
2023-11-18T18:55:45.121Z,11.41
2023-11-18T18:58:34.067Z,11.44
2023-11-18T19:01:23.554Z,11.46
2023-11-18T19:04:14.979Z,11.48
2023-11-18T19:07:04.798Z,11.52
2023-11-18T19:09:52.846Z,11.62
2023-11-18T19:12:41.222Z,11.58
2023-11-18T19:15:29.527Z,11.59
2023-11-18T19:18:17.553Z,11.70
2023-11-18T19:21:06.280Z,11.72
2023-11-18T19:23:55.674Z,11.69
2023-11-18T19:26:43.629Z,11.86
2023-11-18T19:29:31.656Z,11.85
2023-11-18T19:32:19.698Z,11.82
2023-11-18T19:35:08.916Z,11.95
2023-11-18T19:37:56.937Z,11.94
2023-11-18T19:40:46.538Z,11.93
2023-11-18T19:43:34.762Z,11.92
2023-11-18T19:46:22.747Z,11.98
2023-11-18T19:49:11.818Z,12.02
2023-11-18T19:51:59.864Z,12.07
2023-11-18T19:54:47.969Z,12.04
2023-11-18T19:57:37.387Z,12.06
2023-11-18T20:00:27.589Z,12.04
2023-11-18T20:03:16.521Z,12.01
2023-11-18T20:06:05.169Z,12.05
2023-11-18T20:08:53.164Z,12.00
2023-11-18T20:11:49.714Z,12.09
2023-11-18T20:14:39.114Z,12.11
2023-11-18T20:17:27.223Z,12.15
2023-11-18T20:20:15.617Z,12.16
2023-11-18T20:23:04.763Z,12.15
2023-11-18T20:25:52.825Z,12.18
2023-11-18T20:28:40.795Z,12.24
2023-11-18T20:31:30.112Z,12.23
2023-11-18T20:34:19.089Z,12.24
2023-11-18T20:37:07.655Z,12.31
2023-11-18T20:39:57.964Z,12.36
2023-11-18T20:42:46.364Z,12.35
2023-11-18T20:45:34.399Z,12.38
2023-11-18T20:48:23.818Z,12.36
2023-11-18T20:51:11.925Z,12.48
2023-11-18T20:54:00.491Z,12.43
2023-11-18T20:56:48.404Z,12.43
2023-11-18T20:59:36.395Z,12.39
2023-11-18T21:02:24.422Z,12.55
2023-11-18T21:05:14.215Z,12.48
2023-11-18T21:08:02.361Z,12.55
2023-11-18T21:10:50.593Z,12.51
2023-11-18T21:13:39.516Z,12.57
2023-11-18T21:16:27.594Z,12.63
2023-11-18T21:19:15.629Z,12.64
2023-11-18T21:22:05.338Z,12.74
2023-11-18T21:24:54.479Z,12.68
2023-11-18T21:27:44.988Z,12.63
2023-11-18T21:30:33.461Z,12.67
2023-11-18T21:33:22.343Z,12.68
2023-11-18T21:36:10.957Z,12.69
2023-11-18T21:39:00.282Z,12.67
2023-11-18T21:41:48.264Z,12.72
2023-11-18T21:44:37.276Z,12.70
2023-11-18T21:47:26.492Z,12.74
2023-11-18T21:50:15.964Z,12.75
2023-11-18T21:53:04.180Z,12.84
2023-11-18T21:55:55.426Z,12.83
2023-11-18T21:58:43.602Z,12.90
2023-11-18T22:01:32.209Z,12.88
2023-11-18T22:04:21.292Z,12.84
2023-11-18T22:07:12.310Z,12.84
2023-11-18T22:10:00.341Z,12.79
2023-11-18T22:12:52.759Z,12.86
2023-11-18T22:15:41.673Z,12.79
2023-11-18T22:18:29.738Z,12.76
2023-11-18T22:21:17.848Z,12.73
2023-11-18T22:24:10.324Z,12.74
2023-11-18T22:26:58.324Z,12.72
2023-11-18T22:29:50.291Z,12.72
2023-11-18T22:32:38.816Z,12.69
2023-11-18T22:35:28.188Z,12.72
2023-11-18T22:38:16.854Z,12.73
2023-11-18T22:41:05.369Z,12.75
2023-11-18T22:43:54.357Z,12.69
2023-11-18T22:46:44.958Z,12.83
2023-11-18T22:49:34.978Z,12.77
2023-11-18T22:52:23.003Z,12.79
2023-11-18T22:58:03.524Z,12.75
2023-11-18T23:00:53.016Z,12.81
2023-11-18T23:03:42.434Z,12.75
2023-11-18T23:06:30.689Z,12.71
2023-11-18T23:09:18.657Z,12.73
2023-11-18T23:12:07.822Z,12.68
2023-11-18T23:14:55.823Z,12.66
2023-11-18T23:17:44.030Z,12.68
2023-11-18T23:20:33.794Z,12.59
2023-11-18T23:23:21.766Z,12.58
2023-11-18T23:26:10.010Z,12.55
2023-11-18T23:28:58.286Z,12.58
2023-11-18T23:31:46.319Z,12.64
2023-11-18T23:34:34.573Z,12.59
2023-11-18T23:37:25.592Z,12.64
2023-11-18T23:40:14.618Z,12.60
2023-11-18T23:43:03.099Z,12.55
2023-11-18T23:45:51.269Z,12.60
2023-11-18T23:48:40.311Z,12.49
2023-11-18T23:51:29.283Z,12.48
2023-11-18T23:54:18.666Z,12.53
2023-11-18T23:57:07.092Z,12.52
2023-11-18T23:59:55.413Z,12.46
